Kezdőlap
METAR-TAF:

METAR-TAF

Repülőterek :

Wahoo, Nebraska, Amerikai Egyesült Államok

földrajzi szélesség: 41-14-26N, földrajzi hosszúság: 096-35-40W, magasság: 373 m

Jelenlegi meteorológiai megfigyelések

A jelentés 15 perccel ezelõtt készült, 04:15 UTC
Szélcsend
Hőmérséklet 1°C
Páratartalom 93%
Légköri nyomás 1003 hPa
Látótávolság: 16.1 km
Derült ég

METAR: KAHQ 090415Z AUTO 00000KT 10SM CLR 01/00 A2963 RMK AO2 T00090000

Idő: 22:30 (04:30 UTC)


TAF: hiányzik

Meteorológiai megfigyelések és előrejelzések több, mint 4000 repülőtéren (METAR és TAF jelentéseket).

A térképen piros és sárga pontok jelzik az elérhető meteorológiai állomásokat.

Mozgassa az egeret a pont fölött, hogy megjelenjen az állomás neve.

Azután kattintson az időjárási megfigyelések és előrejelzések megtekintéséhez.

A térkép megváltoztatása: kattintson a fekete keresztel jelölt zöld gombra ráközelítéshez, a vonallal jelölt zöld gombra távolításhoz, vagy a zöld nyilakra a szomszédos térképek eléréséhez.


METAR-TAF: